Time;durP1;ratioP1;P1;durP2;ratioP2;P2;SDS_P1;SDS_P2;PMS_P1;PMS_P2;Temp;Humidity;BMP_temperature;BMP_pressure;BME280_temperature;BME280_humidity;BME280_pressure;Samples;Min_cycle;Max_cycle;Signal;HPM_P1;HPM_P2
2023/09/01 00:02:15;;;;;;;101.90;80.93;;;;;;;;;;5031104;28;20496;-83
2023/09/01 00:04:40;;;;;;;68.17;57.83;;;;;;;;;;5046767;28;20112;-80
2023/09/01 00:07:06;;;;;;;74.47;52.10;;;;;;;;;;5049239;28;20029;-79
2023/09/01 00:09:31;;;;;;;74.37;59.00;;;;;;;14.63;nan;100216.25;5046662;28;20021;-80
2023/09/01 00:11:56;;;;;;;7.35;6.90;;;;;;;;;;5048169;28;20013;-82
2023/09/01 00:14:21;;;;;;;0.47;0.47;;;;;;;;;;5027834;28;20029;-82
2023/09/01 00:16:46;;;;;;;2.53;2.47;;;;;;;;;;5043782;28;20021;-82
2023/09/01 00:19:12;;;;;;;0.20;0.20;;;;;;;14.58;nan;100058.16;5029307;28;20718;-81
2023/09/01 00:21:37;;;;;;;2.22;2.10;;;;;;;;;;5049517;28;20028;-80
2023/09/01 00:24:03;;;;;;;0.63;0.63;;;;;;;;;;5030325;28;20029;-81
2023/09/01 00:26:28;;;;;;;0.22;0.22;;;;;;;;;;5049685;28;20104;-80
2023/09/01 00:28:53;;;;;;;0.20;0.20;;;;;;;;;;5031740;28;20132;-81
2023/09/01 00:31:20;;;;;;;0.10;0.10;;;;;;;;;;5049566;28;20279;-80
2023/09/01 00:33:45;;;;;;;0.20;0.20;;;;;;;;;;5038065;28;20035;-81
2023/09/01 00:36:10;;;;;;;0.20;0.20;;;;;;;;;;5033919;28;20029;-80
2023/09/01 00:38:35;;;;;;;0.17;0.17;;;;;;;14.67;nan;100061.53;5041390;28;20060;-81
2023/09/01 00:41:00;;;;;;;0.20;0.20;;;;;;;;;;5023702;28;20037;-80
2023/09/01 00:43:25;;;;;;;0.20;0.20;;;;;;;;;;5049519;28;20072;-80
2023/09/01 00:45:51;;;;;;;0.20;0.20;;;;;;;;;;5048032;28;20037;-80
2023/09/01 00:48:17;;;;;;;0.10;0.10;;;;;;;;;;5023208;28;20055;-81
2023/09/01 00:50:42;;;;;;;0.17;0.17;;;;;;;;;;5049431;28;20048;-79
2023/09/01 00:53:08;;;;;;;0.28;0.28;;;;;;;;;;5024330;28;20022;-81
2023/09/01 00:55:33;;;;;;;19.23;17.87;;;;;;;;;;5031476;28;20530;-80
2023/09/01 00:57:59;;;;;;;0.77;0.73;;;;;;;;;;5049016;28;20743;-81
2023/09/01 01:00:24;;;;;;;7.65;7.22;;;;;;;;;;5041231;28;20028;-81
2023/09/01 01:02:49;;;;;;;10.80;10.15;;;;;;;;;;5029962;28;20043;-81
2023/09/01 01:05:15;;;;;;;1.17;1.15;;;;;;;;;;5055822;28;20484;-81
2023/09/01 01:07:54;;;;;;;17.92;16.63;;;;;;;;;;5049555;28;20583;-82
2023/09/01 01:10:23;;;;;;;22.42;20.95;;;;;;;;;;5054046;28;20677;-80
2023/09/01 01:12:52;;;;;;;102.88;91.05;;;;;;;;;;5048862;28;20075;-81
2023/09/01 01:15:19;;;;;;;106.53;85.13;;;;;;;;;;5030662;28;20029;-82
2023/09/01 01:17:45;;;;;;;164.27;105.53;;;;;;;;;;5063032;28;20054;-81
2023/09/01 01:20:16;;;;;;;236.45;111.05;;;;;;;;;;5032602;28;20025;-81
2023/09/01 01:22:42;;;;;;;151.35;110.13;;;;;;;;;;5030973;28;20028;-81
2023/09/01 01:25:08;;;;;;;136.93;107.05;;;;;;;;;;5048493;28;20033;-81
2023/09/01 01:27:33;;;;;;;147.20;111.18;;;;;;;;;;5031550;28;20585;-81
2023/09/01 01:30:00;;;;;;;113.13;88.27;;;;;;;;;;5030448;28;20029;-81
2023/09/01 01:32:25;;;;;;;91.50;81.03;;;;;;;;;;5030395;28;20051;-81
2023/09/01 01:34:57;;;;;;;97.30;57.57;;;;;;;;;;5038715;28;20488;-81
2023/09/01 01:37:37;;;;;;;225.82;102.13;;;;;;;14.83;nan;100055.94;5047895;28;20104;-81
2023/09/01 01:40:05;;;;;;;195.02;109.10;;;;;;;;;;5048042;28;20035;-81
2023/09/01 01:42:31;;;;;;;231.32;100.38;;;;;;;;;;5032570;28;20021;-81
2023/09/01 01:44:58;;;;;;;237.52;92.25;;;;;;;;;;5036350;28;20025;-81
2023/09/01 01:47:23;;;;;;;309.52;112.25;;;;;;;;;;5047364;28;20025;-81
2023/09/01 01:49:49;;;;;;;309.60;110.67;;;;;;;;;;5048063;28;20079;-80
2023/09/01 01:52:14;;;;;;;308.42;110.28;;;;;;;;;;5036887;28;20381;-81
2023/09/01 01:54:39;;;;;;;302.53;110.90;;;;;;;;;;5029969;28;20036;-81
2023/09/01 01:57:04;;;;;;;292.83;102.60;;;;;;;;;;5038020;28;20431;-82
2023/09/01 01:59:29;;;;;;;300.37;110.60;;;;;;;;;;5023795;28;20041;-81
2023/09/01 02:01:55;;;;;;;301.40;105.93;;;;;;;;;;5029745;28;20389;-81
2023/09/01 02:04:20;;;;;;;304.20;113.20;;;;;;;;;;5020801;28;20211;-81
2023/09/01 02:06:45;;;;;;;311.20;119.90;;;;;;;;;;5029916;28;20047;-80
2023/09/01 02:09:10;;;;;;;308.30;118.00;;;;;;;;;;5046867;28;20075;-80
2023/09/01 02:11:36;;;;;;;308.57;115.23;;;;;;;;;;5034534;28;20684;-81
2023/09/01 02:14:01;;;;;;;299.10;117.22;;;;;;;;;;5041120;28;20052;-83
2023/09/01 02:16:26;;;;;;;296.47;117.27;;;;;;;;;;5028961;28;20408;-81
2023/09/01 02:18:51;;;;;;;282.43;103.23;;;;;;;;;;5047439;28;20029;-82
2023/09/01 02:21:20;;;;;;;294.13;111.37;;;;;;;;;;5028972;28;20516;-81
2023/09/01 02:23:46;;;;;;;292.40;112.18;;;;;;;;;;5055888;28;20040;-81
2023/09/01 02:26:16;;;;;;;282.85;100.47;;;;;;;;;;5029353;28;20071;-82
2023/09/01 02:28:41;;;;;;;295.40;117.18;;;;;;;;;;5023185;28;20033;-82
2023/09/01 02:31:09;;;;;;;340.90;203.88;;;;;;;;;;5036975;28;20655;-81
2023/09/01 02:33:34;;;;;;;304.92;139.77;;;;;;;;;;5047084;28;20035;-82
2023/09/01 02:36:19;;;;;;;258.17;91.65;;;;;;;;;;5046872;28;20108;-82
2023/09/01 02:38:45;;;;;;;270.13;111.28;;;;;;;;;;5051708;28;20111;-81
2023/09/01 02:41:10;;;;;;;262.87;97.93;;;;;;;;;;5038767;28;20131;-82
2023/09/01 02:43:35;;;;;;;245.73;86.83;;;;;;;;;;5047203;28;20033;-83
2023/09/01 02:46:00;;;;;;;246.60;86.80;;;;;;;;;;5029108;28;20677;-83
2023/09/01 02:48:26;;;;;;;259.27;90.60;;;;;;;;;;5037139;28;20048;-81
2023/09/01 02:50:51;;;;;;;256.45;91.43;;;;;;;;;;5028890;28;20029;-81
2023/09/01 02:53:16;;;;;;;252.70;88.73;;;;;;;;;;5037366;28;20033;-82
2023/09/01 02:55:41;;;;;;;248.97;88.80;;;;;;;;;;5054568;28;20036;-82
2023/09/01 02:58:06;;;;;;;262.77;97.53;;;;;;;;;;5027297;28;20455;-83
2023/09/01 03:00:32;;;;;;;267.85;102.63;;;;;;;;;;5046237;28;20028;-81
2023/09/01 03:02:57;;;;;;;261.45;95.93;;;;;;;14.79;nan;100150.50;5044451;28;20078;-81
2023/09/01 03:05:23;;;;;;;267.73;109.90;;;;;;;;;;5028361;28;20032;-82
2023/09/01 03:07:48;;;;;;;264.27;96.10;;;;;;;;;;5028863;28;20025;-81
2023/09/01 03:10:13;;;;;;;258.77;87.80;;;;;;;;;;5027943;28;20043;-82
2023/09/01 03:12:39;;;;;;;268.53;97.97;;;;;;;;;;5030745;28;20020;-82
2023/09/01 03:15:05;;;;;;;263.75;96.30;;;;;;;;;;5028557;28;20035;-83
2023/09/01 03:17:30;;;;;;;271.90;102.05;;;;;;;;;;5028693;28;20025;-82
2023/09/01 03:19:55;;;;;;;268.77;90.60;;;;;;;;;;5046630;28;20435;-82
2023/09/01 03:22:22;;;;;;;273.20;91.67;;;;;;;;;;5028161;28;20414;-83
2023/09/01 03:24:49;;;;;;;265.40;89.20;;;;;;;22.39;100.00;71394.06;5022367;28;20040;-83
2023/09/01 03:27:14;;;;;;;266.10;90.43;;;;;;;;;;5043455;28;20056;-82
2023/09/01 03:29:40;;;;;;;274.00;99.13;;;;;;;;;;5037079;28;20055;-82
2023/09/01 03:32:05;;;;;;;270.00;91.28;;;;;;;;;;5028528;28;20028;-83
2023/09/01 03:34:30;;;;;;;267.87;91.43;;;;;;;;;;5041322;28;20032;-82
2023/09/01 03:36:55;;;;;;;270.33;92.53;;;;;;;;;;5028726;28;20278;-83
2023/09/01 03:39:21;;;;;;;268.80;93.00;;;;;;;;;;5054815;28;20043;-82
2023/09/01 03:41:46;;;;;;;270.23;93.80;;;;;;;;;;5043949;28;20295;-82
2023/09/01 03:44:11;;;;;;;268.75;94.72;;;;;;;;;;5028740;28;20029;-83
2023/09/01 03:46:37;;;;;;;269.42;92.43;;;;;;;15.26;nan;100093.19;5027650;28;20086;-83
2023/09/01 03:49:02;;;;;;;286.38;101.13;;;;;;;;;;5045551;28;20108;-81
2023/09/01 03:51:27;;;;;;;287.47;104.20;;;;;;;;;;5028151;28;20458;-82
2023/09/01 03:53:52;;;;;;;280.27;99.50;;;;;;;;;;5028244;28;20036;-81
2023/09/01 03:56:18;;;;;;;277.43;98.43;;;;;;;;;;5026733;28;20275;-82
2023/09/01 03:58:43;;;;;;;283.70;105.50;;;;;;;;;;5031236;28;20056;-83
2023/09/01 04:01:08;;;;;;;273.73;97.65;;;;;;;;;;5020492;28;20024;-82
2023/09/01 04:03:37;;;;;;;280.05;103.63;;;;;;;;;;5042197;28;20064;-82
2023/09/01 04:06:05;;;;;;;273.15;92.63;;;;;;;;;;5025662;28;20702;-81
2023/09/01 04:08:30;;;;;;;278.55;95.45;;;;;;;;;;5053739;28;20393;-84
2023/09/01 04:10:55;;;;;;;273.90;92.43;;;;;;;;;;5046391;28;20020;-83
2023/09/01 04:13:20;;;;;;;271.53;92.13;;;;;;;;;;5031044;28;20029;-82
2023/09/01 04:15:46;;;;;;;281.27;96.80;;;;;;;;;;5029606;28;20064;-83
2023/09/01 04:18:11;;;;;;;282.45;99.68;;;;;;;15.39;nan;100055.97;5019941;28;20030;-82
2023/09/01 04:20:36;;;;;;;274.05;93.40;;;;;;;;;;5040827;28;20036;-81
2023/09/01 04:23:02;;;;;;;269.10;90.03;;;;;;;;;;5020198;28;20484;-82
2023/09/01 04:25:27;;;;;;;271.02;91.53;;;;;;;;;;5044614;28;20130;-82
2023/09/01 04:27:52;;;;;;;279.80;95.20;;;;;;;;;;5046268;28;20021;-83
2023/09/01 04:30:17;;;;;;;269.77;92.90;;;;;;;;;;5059701;28;20354;-82
2023/09/01 04:32:44;;;;;;;268.77;91.83;;;;;;;15.53;nan;100072.06;5026409;28;20255;-84
2023/09/01 04:35:09;;;;;;;265.00;90.72;;;;;;;;;;5047981;28;20044;-84
2023/09/01 04:37:35;;;;;;;266.85;94.82;;;;;;;;;;5020013;28;20520;-81
2023/09/01 04:40:00;;;;;;;268.08;94.05;;;;;;;;;;5021510;28;20628;-81
2023/09/01 04:42:25;;;;;;;267.60;93.73;;;;;;;;;;5023464;28;20025;-83
2023/09/01 04:44:50;;;;;;;265.67;91.40;;;;;;;;;;5031943;28;20280;-82
2023/09/01 04:47:15;;;;;;;264.80;91.60;;;;;;;;;;5031846;28;20029;-82
2023/09/01 04:49:40;;;;;;;264.30;92.77;;;;;;;;;;5050006;28;20397;-82
2023/09/01 04:52:05;;;;;;;265.17;91.77;;;;;;;;;;5048224;28;20081;-82
2023/09/01 04:54:31;;;;;;;267.13;97.20;;;;;;;;;;5039211;28;20264;-82
2023/09/01 04:56:56;;;;;;;273.83;102.00;;;;;;;;;;5031007;28;20089;-81
2023/09/01 04:59:21;;;;;;;263.40;95.57;;;;;;;;;;5030879;28;20036;-84
2023/09/01 05:01:46;;;;;;;262.93;91.33;;;;;;;;;;5029676;28;20111;-84
2023/09/01 05:04:12;;;;;;;265.55;90.95;;;;;;;;;;5050865;28;20345;-82
2023/09/01 05:06:37;;;;;;;274.42;96.28;;;;;;;;;;5043702;28;20025;-82
2023/09/01 05:09:03;;;;;;;267.45;92.35;;;;;;;;;;5026550;28;20114;-83
2023/09/01 05:11:29;;;;;;;270.77;94.93;;;;;;;15.79;nan;100125.56;5031304;28;20599;-82
2023/09/01 05:13:55;;;;;;;276.23;106.05;;;;;;;15.81;nan;100182.19;5032563;28;20052;-81
2023/09/01 05:16:20;;;;;;;280.88;109.68;;;;;;;;;;5047204;28;20197;-84
2023/09/01 05:18:46;;;;;;;260.67;94.03;;;;;;;;;;5030669;28;20120;-84
2023/09/01 05:21:11;;;;;;;274.45;103.57;;;;;;;;;;5023103;28;20272;-82
2023/09/01 05:23:37;;;;;;;257.15;97.05;;;;;;;;;;5030525;28;20111;-82
2023/09/01 05:26:02;;;;;;;260.08;100.15;;;;;;;;;;5039427;28;20040;-82
2023/09/01 05:28:27;;;;;;;262.35;93.30;;;;;;;;;;5048952;28;20053;-82
2023/09/01 05:30:55;;;;;;;250.87;87.87;;;;;;;;;;5047738;28;20039;-82
2023/09/01 05:33:20;;;;;;;252.95;88.80;;;;;;;;;;5039786;28;20370;-83
2023/09/01 05:35:45;;;;;;;248.67;85.57;;;;;;;;;;5038956;28;20108;-82
2023/09/01 05:38:10;;;;;;;254.93;90.73;;;;;;;;;;5022587;28;20029;-83
2023/09/01 05:40:35;;;;;;;257.48;90.57;;;;;;;;;;5035601;28;20029;-83
2023/09/01 05:43:00;;;;;;;262.20;98.50;;;;;;;;;;5052477;28;20144;-82
2023/09/01 05:45:26;;;;;;;261.43;91.27;;;;;;;;;;5026216;28;20035;-83
2023/09/01 05:47:51;;;;;;;263.37;93.27;;;;;;;;;;5023171;28;20027;-83
2023/09/01 05:50:18;;;;;;;266.02;93.80;;;;;;;;;;5030455;28;20573;-83
2023/09/01 05:52:43;;;;;;;257.88;88.25;;;;;;;;;;5046811;28;20025;-83
2023/09/01 05:55:09;;;;;;;259.67;92.00;;;;;;;16.20;nan;100131.94;5047715;28;20111;-82
2023/09/01 05:57:34;;;;;;;248.90;86.75;;;;;;;;;;5039301;28;20064;-82
2023/09/01 05:59:59;;;;;;;249.43;88.05;;;;;;;;;;5031822;28;20473;-82
2023/09/01 06:02:24;;;;;;;257.57;94.07;;;;;;;;;;5027169;28;20508;-82
2023/09/01 06:04:49;;;;;;;268.33;103.13;;;;;;;16.34;nan;100059.75;5047364;28;20028;-83
2023/09/01 06:07:16;;;;;;;265.17;97.93;;;;;;;;;;5029759;28;20025;-83
2023/09/01 06:09:41;;;;;;;267.63;93.32;;;;;;;;;;5037179;28;20028;-84
2023/09/01 06:12:06;;;;;;;273.83;104.57;;;;;;;;;;5035292;28;20029;-83
2023/09/01 06:14:31;;;;;;;261.67;90.93;;;;;;;16.46;nan;100084.00;5047471;28;20290;-81
2023/09/01 06:16:56;;;;;;;267.17;93.75;;;;;;;;;;5056143;28;20044;-82
2023/09/01 06:19:21;;;;;;;276.30;101.47;;;;;;;;;;5016821;28;20033;-81
2023/09/01 06:21:47;;;;;;;276.63;100.47;;;;;;;;;;5026399;28;20028;-82
2023/09/01 06:24:12;;;;;;;277.00;101.87;;;;;;;;;;5032116;28;20121;-84
2023/09/01 06:26:37;;;;;;;268.17;94.30;;;;;;;;;;5030304;28;20025;-82
2023/09/01 06:29:04;;;;;;;269.80;93.57;;;;;;;;;;5038134;28;20029;-84
2023/09/01 06:31:30;;;;;;;278.35;105.97;;;;;;;;;;5030363;28;20028;-82
2023/09/01 06:33:55;;;;;;;271.37;98.90;;;;;;;;;;5046308;28;20028;-84
2023/09/01 06:36:20;;;;;;;285.27;115.93;;;;;;;16.39;nan;100077.00;5038956;28;20762;-82
2023/09/01 06:38:45;;;;;;;265.55;94.13;;;;;;;;;;5061881;28;20033;-83
2023/09/01 06:41:11;;;;;;;271.95;101.25;;;;;;;;;;5052272;28;20112;-82
2023/09/01 06:43:37;;;;;;;259.17;91.82;;;;;;;;;;5029159;28;20017;-83
2023/09/01 06:46:02;;;;;;;259.17;90.77;;;;;;;;;;5053183;28;20035;-82
2023/09/01 06:48:29;;;;;;;264.63;95.68;;;;;;;;;;5047693;28;20282;-82
2023/09/01 06:50:54;;;;;;;266.60;96.82;;;;;;;;;;5029442;28;20033;-83
2023/09/01 06:53:19;;;;;;;274.70;101.67;;;;;;;;;;5029303;28;20079;-84
2023/09/01 06:55:45;;;;;;;278.83;99.73;;;;;;;;;;5047343;28;20275;-83
2023/09/01 06:58:10;;;;;;;264.77;90.68;;;;;;;;;;5039237;28;20112;-82
2023/09/01 07:00:35;;;;;;;271.23;98.90;;;;;;;;;;5028283;28;20028;-82
2023/09/01 07:03:00;;;;;;;278.27;99.17;;;;;;;;;;5035733;28;20286;-82
2023/09/01 07:05:26;;;;;;;287.67;110.53;;;;;;;;;;5041154;28;20064;-82
2023/09/01 07:07:52;;;;;;;251.70;95.07;;;;;;;;;;5037053;28;20017;-85
2023/09/01 07:10:17;;;;;;;265.77;96.85;;;;;;;;;;5032666;28;20035;-86
2023/09/01 07:12:43;;;;;;;259.05;98.25;;;;;;;;;;5054080;28;20021;-85
2023/09/01 07:15:09;;;;;;;249.70;95.10;;;;;;;;;;5039054;28;20083;-85
2023/09/01 07:17:34;;;;;;;248.82;94.05;;;;;;;;;;5048216;28;20108;-87
2023/09/01 07:19:59;;;;;;;246.73;91.40;;;;;;;;;;5023740;28;20033;-84
2023/09/01 07:22:24;;;;;;;245.40;90.60;;;;;;;;;;5049357;28;20274;-87
2023/09/01 07:24:50;;;;;;;258.73;93.50;;;;;;;;;;5052426;28;20290;-86
2023/09/01 07:27:15;;;;;;;255.83;92.90;;;;;;;;;;5035509;28;20321;-85
2023/09/01 07:29:40;;;;;;;262.00;96.03;;;;;;;;;;5027067;28;20535;-86
2023/09/01 07:32:05;;;;;;;260.50;93.37;;;;;;;17.54;nan;100096.44;5029991;28;20263;-85
2023/09/01 07:34:33;;;;;;;265.25;100.63;;;;;;;17.73;nan;100117.00;5025578;28;20027;-85
2023/09/01 07:36:58;;;;;;;263.17;95.63;;;;;;;;;;5025708;28;20049;-86
2023/09/01 07:39:24;;;;;;;275.43;107.23;;;;;;;;;;5021262;28;20644;-85
2023/09/01 07:41:50;;;;;;;279.98;106.82;;;;;;;18.07;nan;100116.91;5057049;28;20108;-86
2023/09/01 07:44:16;;;;;;;272.77;100.95;;;;;;;;;;5040919;28;20115;-86
2023/09/01 07:46:42;;;;;;;269.90;100.95;;;;;;;18.43;nan;100132.44;5053204;28;20025;-85
2023/09/01 07:49:08;;;;;;;279.20;104.40;;;;;;;;;;5029565;28;24074;-86
2023/09/01 07:51:33;;;;;;;276.95;104.47;;;;;;;18.88;nan;100146.63;5041758;28;20036;-85
2023/09/01 07:53:59;;;;;;;283.77;110.05;;;;;;;;;;5042998;28;20040;-84
2023/09/01 07:56:24;;;;;;;290.40;115.63;;;;;;;;;;5048741;28;20440;-85
2023/09/01 07:58:49;;;;;;;290.70;119.13;;;;;;;;;;5062178;28;20021;-84
2023/09/01 08:01:14;;;;;;;285.63;114.63;;;;;;;;;;5039221;28;20029;-84
2023/09/01 08:03:39;;;;;;;272.63;105.73;;;;;;;;;;5040667;28;20017;-83
2023/09/01 08:06:05;;;;;;;283.43;117.57;;;;;;;;;;5055159;28;20041;-84
2023/09/01 08:08:30;;;;;;;296.30;133.70;;;;;;;;;;5036780;28;20104;-85
2023/09/01 08:10:56;;;;;;;280.27;115.57;;;;;;;20.71;nan;100154.38;5040557;28;20024;-86
2023/09/01 08:13:22;;;;;;;280.45;113.38;;;;;;;;;;5030187;28;20017;-87
2023/09/01 08:15:47;;;;;;;280.60;114.18;;;;;;;;;;5049221;28;20021;-84
2023/09/01 08:18:12;;;;;;;284.63;117.80;;;;;;;;;;5036906;28;20500;-83
2023/09/01 08:20:37;;;;;;;278.63;113.50;;;;;;;20.34;nan;100154.44;5062318;28;20024;-83
2023/09/01 08:23:03;;;;;;;277.83;110.30;;;;;;;;;;5045553;28;20020;-85
2023/09/01 08:25:28;;;;;;;280.00;113.03;;;;;;;20.07;nan;100256.72;5058606;28;20041;-84
2023/09/01 08:27:53;;;;;;;281.25;111.75;;;;;;;19.82;nan;100168.19;5032005;28;20032;-84
2023/09/01 08:30:19;;;;;;;275.92;111.68;;;;;;;;;;5068372;28;20041;-85
2023/09/01 08:32:44;;;;;;;287.35;113.75;;;;;;;;;;5048525;28;20710;-82
2023/09/01 08:35:11;;;;;;;283.00;112.77;;;;;;;19.53;nan;100157.06;5034061;28;20127;-87
2023/09/01 08:37:36;;;;;;;280.73;109.95;;;;;;;;;;5050706;28;20067;-84
2023/09/01 08:40:01;;;;;;;280.33;113.10;;;;;;;;;;5023274;28;20592;-85
2023/09/01 08:42:28;;;;;;;282.15;111.65;;;;;;;;;;5053172;28;20048;-84
2023/09/01 08:44:55;;;;;;;283.25;113.88;;;;;;;;;;5031822;28;20655;-84
2023/09/01 08:47:22;;;;;;;279.17;111.93;;;;;;;20.55;nan;100183.53;5049764;28;20605;-83
2023/09/01 08:49:48;;;;;;;282.75;114.75;;;;;;;20.97;nan;100175.53;5049909;28;20132;-84
2023/09/01 08:52:14;;;;;;;;;;;;;;;;;;5032153;28;20070;-84
2023/09/01 08:54:39;;;;;;;283.27;115.32;;;;;;;;;;5044444;28;19913;-84
2023/09/01 08:57:04;;;;;;;286.75;120.82;;;;;;;21.19;nan;100194.66;5054240;28;20443;-84
2023/09/01 08:59:31;;;;;;;282.08;119.18;;;;;;;;;;5045809;28;20044;-84
2023/09/01 09:01:56;;;;;;;285.73;117.70;;;;;;;;;;5045501;28;20465;-83
2023/09/01 09:04:21;;;;;;;287.70;119.10;;;;;;;;;;5042760;28;20029;-83
2023/09/01 09:06:52;;;;;;;285.00;121.10;;;;;;;21.17;nan;100196.75;5030511;28;20414;-85
2023/09/01 09:09:21;;;;;;;341.60;201.10;;;;;;;21.21;nan;100187.19;5036282;28;20294;-85
2023/09/01 09:11:59;;;;;;;291.48;132.80;;;;;;;21.30;nan;100201.09;5020959;28;20031;-85
2023/09/01 09:14:29;;;;;;;303.75;161.00;;;;;;;21.23;nan;100197.69;5042893;28;20031;-86
2023/09/01 09:16:57;;;;;;;286.38;131.88;;;;;;;20.99;nan;100183.34;5029504;28;20021;-85
2023/09/01 09:19:23;;;;;;;275.00;113.28;;;;;;;;;;5025005;28;20033;-87
2023/09/01 09:21:49;;;;;;;281.48;121.93;;;;;;;20.76;nan;100201.03;5028983;28;20029;-84
2023/09/01 09:24:32;;;;;;;285.95;129.73;;;;;;;;;;5035724;28;20449;-84
2023/09/01 09:26:58;;;;;;;278.70;116.57;;;;;;;20.88;nan;100198.41;5049288;28;20029;-85
2023/09/01 09:29:24;;;;;;;266.90;104.90;;;;;;;;;;5031190;28;20480;-84
2023/09/01 09:31:50;;;;;;;265.73;102.55;;;;;;;;;;5046252;28;20092;-84
2023/09/01 09:34:22;;;;;;;263.63;99.50;;;;;;;20.37;nan;100172.75;5061576;28;20632;-84
2023/09/01 09:36:49;;;;;;;265.77;102.85;;;;;;;20.28;nan;100204.47;5031459;28;20029;-84
2023/09/01 09:39:25;;;;;;;268.85;102.88;;;;;;;20.15;nan;100189.31;5040593;28;20123;-86
2023/09/01 09:41:50;;;;;;;269.45;103.65;;;;;;;;;;5053594;28;20025;-87
2023/09/01 09:44:23;;;;;;;268.38;105.63;;;;;;;;;;5027669;28;20029;-83
2023/09/01 09:46:49;;;;;;;274.63;114.10;;;;;;;;;;5046276;28;20485;-86
2023/09/01 09:49:14;;;;;;;276.90;114.60;;;;;;;;;;5024479;28;20095;-85
2023/09/01 09:51:48;;;;;;;272.88;107.65;;;;;;;19.92;nan;100199.88;5043026;28;20025;-84
2023/09/01 09:54:14;;;;;;;283.83;119.72;;;;;;;;;;5038833;28;20909;-83
2023/09/01 09:56:40;;;;;;;283.88;115.70;;;;;;;;;;5034025;28;20814;-81
2023/09/01 10:01:41;;;;;;;299.27;130.45;;;;;;;;;;5024541;28;20065;-86
2023/09/01 10:04:06;;;;;;;289.35;121.10;;;;;;;;;;5042863;28;20036;-86
2023/09/01 10:06:35;;;;;;;287.63;120.18;;;;;;;;;;5027145;28;20657;-87
2023/09/01 10:09:05;;;;;;;290.85;120.97;;;;;;;20.18;nan;100198.78;5026630;28;20304;-89
2023/09/01 10:14:05;;;;;;;273.13;107.70;;;;;;;;;;5037014;28;20464;-88
2023/09/01 10:16:31;;;;;;;275.08;107.93;;;;;;;;;;5049982;28;20055;-89
2023/09/01 10:18:59;;;;;;;328.67;164.00;;;;;;;;;;5044174;28;20021;-88
2023/09/01 10:21:24;;;;;;;354.25;228.85;;;;;;;;;;5023339;28;20026;-89
2023/09/01 10:23:51;;;;;;;333.33;192.63;;;;;;;;;;5046288;28;20025;-88
2023/09/01 10:26:25;;;;;;;304.20;130.07;;;;;;;19.44;nan;100170.97;5025307;28;20094;-88
2023/09/01 10:29:06;;;;;;;301.55;130.68;;;;;;;;;;5003739;28;20026;-87
2023/09/01 10:31:33;;;;;;;304.05;127.93;;;;;;;19.15;nan;100173.25;5029870;28;20516;-84
2023/09/01 10:34:15;;;;;;;292.70;117.47;;;;;;;;;;5048840;28;20056;-86
2023/09/01 10:36:44;;;;;;;322.60;140.93;;;;;;;19.23;nan;100159.56;5019980;28;20026;-85
2023/09/01 10:39:18;;;;;;;315.65;155.48;;;;;;;19.28;nan;100161.59;5003533;28;20065;-84
2023/09/01 10:41:58;;;;;;;293.48;123.35;;;;;;;19.26;nan;100155.66;5009665;28;21750;-84
2023/09/01 10:44:26;;;;;;;278.25;115.95;;;;;;;;;;5034373;28;20035;-87
2023/09/01 10:46:51;;;;;;;275.65;108.85;;;;;;;19.21;nan;100139.38;5030219;28;20112;-84
2023/09/01 10:49:17;;;;;;;282.80;113.32;;;;;;;;;;5033495;28;20120;-85
2023/09/01 10:51:46;;;;;;;285.20;112.50;;;;;;;19.15;nan;100242.94;5003392;28;20037;-84
2023/09/01 10:54:14;;;;;;;275.75;106.40;;;;;;;19.15;nan;100145.63;5010005;28;20028;-84
2023/09/01 10:57:04;;;;;;;274.23;104.65;;;;;;;19.20;nan;100153.84;5029064;28;20025;-85
2023/09/01 10:59:30;;;;;;;280.20;112.45;;;;;;;;;;5026064;28;20108;-86
2023/09/01 11:01:55;;;;;;;270.70;101.95;;;;;;;;;;5006901;28;20117;-88
2023/09/01 11:04:20;;;;;;;276.35;107.18;;;;;;;;;;5007466;28;20045;-84
2023/09/01 11:07:02;;;;;;;276.05;109.43;;;;;;;;;;5005331;28;20710;-85
2023/09/01 11:09:34;;;;;;;280.95;112.28;;;;;;;19.81;nan;100155.84;5015308;28;20021;-85
2023/09/01 11:12:00;;;;;;;279.92;112.25;;;;;;;;;;5005310;28;20124;-86
2023/09/01 11:14:26;;;;;;;278.65;116.60;;;;;;;21.21;nan;100272.38;5029805;28;20044;-86
2023/09/01 11:16:51;;;;;;;289.73;124.97;;;;;;;;;;5007667;28;20018;-86
2023/09/01 11:19:16;;;;;;;;;;;;;;;;;;5020133;28;20033;-86
2023/09/01 11:21:41;;;;;;;274.40;112.80;;;;;;;21.99;nan;100195.22;5038422;28;19928;-85
2023/09/01 11:24:07;;;;;;;274.10;113.93;;;;;;;;;;5028646;28;20349;-86
2023/09/01 11:26:32;;;;;;;271.55;111.10;;;;;;;;;;5030671;28;20036;-84
2023/09/01 11:28:58;;;;;;;273.98;110.45;;;;;;;;;;5007637;28;20025;-87
2023/09/01 11:31:35;;;;;;;273.67;109.65;;;;;;;;;;5036031;28;20021;-85
2023/09/01 11:34:01;;;;;;;274.90;112.40;;;;;;;;;;5021433;28;20299;-85
2023/09/01 11:36:26;;;;;;;265.65;105.95;;;;;;;;;;5015808;28;20029;-85
2023/09/01 11:38:52;;;;;;;335.90;207.50;;;;;;;;;;5010540;28;20056;-84
2023/09/01 11:41:19;;;;;;;322.67;166.20;;;;;;;20.49;nan;100227.38;5016309;28;20152;-86
2023/09/01 11:43:46;;;;;;;283.38;121.25;;;;;;;20.35;nan;100172.16;5016739;28;20048;-86
2023/09/01 11:46:18;;;;;;;272.50;109.03;;;;;;;20.50;nan;100161.06;5019086;28;20018;-86
2023/09/01 11:48:46;;;;;;;277.25;115.20;;;;;;;;;;5004339;28;20117;-86
2023/09/01 11:51:12;;;;;;;281.20;121.10;;;;;;;21.08;nan;100148.91;5021387;28;20025;-85
2023/09/01 11:53:38;;;;;;;286.42;123.70;;;;;;;21.35;nan;100160.88;5033731;28;20732;-85
2023/09/01 11:56:22;;;;;;;288.88;123.15;;;;;;;21.61;nan;100164.19;5014713;28;20049;-85
2023/09/01 11:58:52;;;;;;;288.27;125.22;;;;;;;21.84;nan;100222.63;5027669;28;20032;-85
2023/09/01 12:01:19;;;;;;;278.42;118.57;;;;;;;;;;5025028;28;20034;-86
2023/09/01 12:03:45;;;;;;;279.98;122.00;;;;;;;;;;5033751;28;20029;-85
2023/09/01 12:06:28;;;;;;;277.65;119.65;;;;;;;22.32;nan;100181.16;5015773;28;20026;-85
2023/09/01 12:09:10;;;;;;;304.58;149.73;;;;;;;22.48;nan;100174.22;5038409;28;20021;-87
2023/09/01 12:11:35;;;;;;;291.85;136.75;;;;;;;22.85;nan;100163.03;5042622;28;20022;-83
2023/09/01 12:14:19;;;;;;;294.67;140.82;;;;;;;;;;5060245;23;20056;-88
2023/09/01 12:16:44;;;;;;;305.02;152.13;;;;;;;;;;5052215;28;20029;-88
2023/09/01 12:19:10;;;;;;;312.30;173.03;;;;;;;23.90;nan;100190.44;5033089;28;20020;-88
2023/09/01 12:21:35;;;;;;;327.25;194.10;;;;;;;24.02;nan;100172.25;5020867;28;20043;-87
2023/09/01 12:24:04;;;;;;;319.48;185.65;;;;;;;;;;5004426;28;20060;-89
2023/09/01 12:26:29;;;;;;;326.63;197.32;;;;;;;;;;5021104;28;20029;-87
2023/09/01 12:28:54;;;;;;;314.80;175.53;;;;;;;;;;5008463;28;20033;-88
2023/09/01 12:31:20;;;;;;;309.20;166.67;;;;;;;23.87;nan;100199.03;5023539;28;20068;-87
2023/09/01 12:33:45;;;;;;;310.90;168.00;;;;;;;23.85;nan;100204.69;5000547;28;20029;-88
2023/09/01 12:36:12;;;;;;;314.55;168.30;;;;;;;23.86;nan;100216.28;5001045;28;20065;-88
2023/09/01 12:38:37;;;;;;;340.27;215.75;;;;;;;;;;5001361;28;20120;-88
2023/09/01 12:41:03;;;;;;;307.17;164.30;;;;;;;;;;5007897;28;21530;-88
2023/09/01 12:43:28;;;;;;;302.13;153.70;;;;;;;;;;5025692;28;20276;-87
2023/09/01 12:45:53;;;;;;;348.57;233.90;;;;;;;;;;5007759;28;20039;-86
2023/09/01 12:48:18;;;;;;;319.10;178.27;;;;;;;;;;5006781;28;20280;-87
2023/09/01 12:50:48;;;;;;;293.23;147.20;;;;;;;22.62;nan;100190.91;5005204;28;20276;-86
2023/09/01 12:53:13;;;;;;;313.35;188.02;;;;;;;;;;5024200;28;20787;-87
2023/09/01 12:55:39;;;;;;;288.98;134.98;;;;;;;;;;5023195;28;20309;-87
2023/09/01 12:58:04;;;;;;;279.52;126.60;;;;;;;;;;5006616;28;20099;-88
2023/09/01 13:00:29;;;;;;;349.00;238.30;;;;;;;;;;5024237;28;20040;-87
2023/09/01 13:02:54;;;;;;;311.00;188.52;;;;;;;;;;5035660;23;20588;-86
2023/09/01 13:05:20;;;;;;;360.07;267.57;;;;;;;22.72;nan;100195.69;5032781;28;20040;-86
2023/09/01 13:07:49;;;;;;;265.50;121.78;;;;;;;;;;5046384;28;20068;-85
2023/09/01 13:10:15;;;;;;;304.08;187.60;;;;;;;;;;5034321;28;20435;-87
2023/09/01 13:12:41;;;;;;;283.65;157.73;;;;;;;22.57;nan;100182.72;5042935;28;20020;-90
2023/09/01 13:15:07;;;;;;;310.92;198.60;;;;;;;22.44;nan;100146.09;5037522;28;20045;-87
2023/09/01 13:17:32;;;;;;;306.85;179.65;;;;;;;;;;5035421;28;20021;-89
2023/09/01 13:19:57;;;;;;;320.13;192.17;;;;;;;22.26;nan;100172.16;5028363;28;20044;-88